KHEZ/HEZ METAR and TAF weather

Enter ICAO airport designator
Station Type Date Time Source
KHEZ METAR 2020/09/26 23:56 UTC NOAA

KHEZ 262356Z AUTO 00000KT 10SM CLR 23/21 A2992 RMK AO2 SLP129 T02330206 10289 20233 56007


Station Type Date Time Source
KHEZ Decoded METAR 2020/09/26 23:56 UTC NOAA

Natchez, Hardy-Anders Field Natchez-Adams County Airport, MS, United States (KHEZ) 31-37N 091-18W
Sep 26, 2020 - 07:56 PM EDT / 2020.09.26 2356 UTC
Wind: Calm:0
Visibility: 10 mile(s):0
Sky conditions: clear
Temperature: 73.9 F (23.3 C)
Dew Point: 69.1 F (20.6 C)
Relative Humidity: 84%
Pressure (altimeter): 29.92 in. Hg (1013 hPa)
Pressure tendency: 0.02 inches (0.7 hPa) lower than three hours ago
ob: KHEZ 262356Z AUTO 00000KT 10SM CLR 23/21 A2992 RMK AO2 SLP129 T02330206 10289 20233 56007
cycle: 0

Station Type Date Time Source
KHEZ TAF UTC NOAA

Error!

Example: see airport list